createdAt,value
2022-10-17T00:00:16.675Z,12.70
2022-10-17T00:03:40.032Z,12.70
2022-10-17T00:07:01.599Z,12.60
2022-10-17T00:10:23.671Z,12.60
2022-10-17T00:13:45.238Z,12.50
2022-10-17T00:17:06.879Z,12.40
2022-10-17T00:20:29.822Z,12.40
2022-10-17T00:23:51.643Z,12.30
2022-10-17T00:27:13.195Z,12.30
2022-10-17T00:30:34.768Z,12.30
2022-10-17T00:33:56.338Z,12.20
2022-10-17T00:37:19.252Z,12.10
2022-10-17T00:40:40.807Z,12.10
2022-10-17T00:44:03.593Z,12.20
2022-10-17T00:47:25.295Z,12.10
2022-10-17T00:50:48.671Z,12.10
2022-10-17T00:54:13.653Z,12.00
2022-10-17T00:57:35.623Z,12.00
2022-10-17T01:00:57.171Z,12.00
2022-10-17T01:04:18.986Z,12.00
2022-10-17T01:07:41.317Z,12.00
2022-10-17T01:11:08.147Z,12.00
2022-10-17T01:14:31.292Z,12.00
2022-10-17T01:17:59.085Z,11.90
2022-10-17T01:21:35.521Z,11.90
2022-10-17T01:25:15.152Z,11.80
2022-10-17T01:28:49.784Z,11.80
2022-10-17T01:32:14.951Z,11.80
2022-10-17T01:35:37.933Z,11.80
2022-10-17T01:39:02.063Z,11.80
2022-10-17T01:42:27.451Z,11.80
2022-10-17T01:45:51.268Z,11.90
2022-10-17T01:49:15.292Z,11.80
2022-10-17T01:52:38.564Z,11.90
2022-10-17T01:56:00.940Z,11.80
2022-10-17T01:59:24.319Z,11.80
2022-10-17T02:02:46.824Z,11.70
2022-10-17T02:06:09.722Z,11.70
2022-10-17T02:09:31.250Z,11.70
2022-10-17T02:12:55.186Z,11.70
2022-10-17T02:16:22.325Z,11.80
2022-10-17T02:19:50.229Z,11.80
2022-10-17T02:26:41.343Z,11.70
2022-10-17T02:30:06.577Z,11.60
2022-10-17T02:33:29.310Z,11.50
2022-10-17T02:36:52.215Z,11.50
2022-10-17T02:40:16.646Z,11.50
2022-10-17T02:43:38.790Z,11.50
2022-10-17T02:47:03.451Z,11.50
2022-10-17T02:53:53.696Z,11.50
2022-10-17T02:57:21.363Z,11.40
2022-10-17T03:00:43.540Z,11.40
2022-10-17T03:04:06.019Z,11.30
2022-10-17T03:07:27.551Z,11.40
2022-10-17T03:10:49.136Z,11.40
2022-10-17T03:14:12.040Z,11.50
2022-10-17T03:17:33.701Z,11.50
2022-10-17T03:20:55.308Z,11.50
2022-10-17T03:24:16.857Z,11.50
2022-10-17T03:27:38.428Z,11.50
2022-10-17T03:31:06.087Z,11.50
2022-10-17T03:34:27.667Z,11.40
2022-10-17T03:37:49.212Z,11.40
2022-10-17T03:41:10.831Z,11.40
2022-10-17T03:44:32.390Z,11.40
2022-10-17T03:47:55.293Z,11.40
2022-10-17T03:51:16.867Z,11.40
2022-10-17T03:54:38.484Z,11.40
2022-10-17T03:58:00.030Z,11.40
2022-10-17T04:01:21.966Z,11.40
2022-10-17T04:04:44.927Z,11.30
2022-10-17T04:08:06.468Z,11.30
2022-10-17T04:11:28.091Z,11.30
2022-10-17T04:14:49.644Z,11.10
2022-10-17T04:18:11.186Z,11.00
2022-10-17T04:21:34.091Z,11.00
2022-10-17T04:24:55.652Z,10.90
2022-10-17T04:28:17.253Z,10.90
2022-10-17T04:31:38.862Z,10.90
2022-10-17T04:35:00.463Z,10.90
2022-10-17T04:38:27.660Z,10.80
2022-10-17T04:41:50.205Z,10.80
2022-10-17T04:45:11.748Z,10.70
2022-10-17T04:48:33.286Z,10.70
2022-10-17T04:51:54.845Z,10.70
2022-10-17T04:55:17.854Z,10.60
2022-10-17T04:58:39.831Z,10.60
2022-10-17T05:02:01.377Z,10.60
2022-10-17T05:05:22.916Z,10.60
2022-10-17T05:08:44.916Z,10.60
2022-10-17T05:12:10.234Z,10.60
2022-10-17T05:15:32.115Z,10.60
2022-10-17T05:18:58.479Z,10.60
2022-10-17T05:22:20.028Z,10.60
2022-10-17T05:25:41.578Z,10.70
2022-10-17T05:29:05.718Z,10.70
2022-10-17T05:32:27.749Z,10.80
2022-10-17T05:35:49.484Z,10.90
2022-10-17T05:39:11.841Z,10.90
2022-10-17T05:42:33.795Z,10.90
2022-10-17T05:45:57.082Z,10.90
2022-10-17T05:49:32.190Z,10.90
2022-10-17T05:52:54.772Z,10.90
2022-10-17T05:56:16.327Z,10.90
2022-10-17T05:59:37.980Z,10.90
2022-10-17T06:03:00.906Z,10.80
2022-10-17T06:06:22.618Z,10.80
2022-10-17T06:09:47.152Z,10.80
2022-10-17T06:13:08.767Z,10.80
2022-10-17T06:16:30.328Z,10.90
2022-10-17T06:19:53.251Z,10.90
2022-10-17T06:23:15.403Z,10.90
2022-10-17T06:26:36.956Z,10.90
2022-10-17T06:29:58.504Z,10.90
2022-10-17T06:33:20.057Z,10.90
2022-10-17T06:36:42.999Z,11.00
2022-10-17T06:40:05.217Z,10.90
2022-10-17T06:43:27.919Z,11.00
2022-10-17T06:46:49.647Z,11.00
2022-10-17T06:50:11.202Z,11.00
2022-10-17T06:53:34.573Z,11.00
2022-10-17T06:56:56.374Z,11.00
2022-10-17T07:00:18.063Z,10.90
2022-10-17T07:03:40.091Z,11.00
2022-10-17T07:07:01.642Z,11.00
2022-10-17T07:10:24.531Z,11.10
2022-10-17T07:13:46.399Z,11.20
2022-10-17T07:17:07.961Z,11.40
2022-10-17T07:20:29.498Z,11.50
2022-10-17T07:23:51.045Z,11.60
2022-10-17T07:27:13.958Z,11.90
2022-10-17T07:30:35.528Z,12.20
2022-10-17T07:33:58.979Z,13.40
2022-10-17T07:37:20.539Z,15.20
2022-10-17T07:40:42.120Z,17.40
2022-10-17T07:44:05.078Z,19.40
2022-10-17T07:47:26.821Z,21.40
2022-10-17T07:50:48.595Z,22.90
2022-10-17T07:54:10.137Z,24.20
2022-10-17T07:57:31.946Z,24.90
2022-10-17T08:00:55.001Z,25.50
2022-10-17T08:04:16.660Z,25.80
2022-10-17T08:07:38.204Z,26.00
2022-10-17T08:11:01.994Z,26.00
2022-10-17T08:14:23.532Z,26.00
2022-10-17T08:17:46.450Z,26.20
2022-10-17T08:21:07.986Z,26.30
2022-10-17T08:24:29.523Z,26.20
2022-10-17T08:27:51.107Z,26.10
2022-10-17T08:31:14.379Z,26.50
2022-10-17T08:34:37.308Z,27.00
2022-10-17T08:37:59.097Z,26.90
2022-10-17T08:41:25.410Z,26.90
2022-10-17T08:44:52.531Z,26.80
2022-10-17T08:48:15.790Z,25.80
2022-10-17T08:51:41.584Z,25.30
2022-10-17T08:55:03.423Z,24.50
2022-10-17T08:58:27.028Z,25.00
2022-10-17T09:01:50.878Z,25.50
2022-10-17T09:05:26.524Z,26.60
2022-10-17T09:08:55.415Z,27.00
2022-10-17T09:12:18.708Z,27.10
2022-10-17T09:15:49.599Z,27.50
2022-10-17T09:19:12.849Z,27.00
2022-10-17T09:22:38.083Z,25.70
2022-10-17T09:26:01.259Z,24.60
2022-10-17T09:29:23.424Z,23.50
2022-10-17T09:32:44.988Z,23.00
2022-10-17T09:36:10.703Z,22.50
2022-10-17T09:39:32.296Z,22.20
2022-10-17T09:42:55.255Z,21.90
2022-10-17T09:46:19.073Z,21.70
2022-10-17T09:49:41.658Z,21.50
2022-10-17T09:53:06.588Z,21.30
2022-10-17T09:56:28.171Z,21.20
2022-10-17T09:59:57.311Z,21.10
2022-10-17T10:03:19.472Z,20.90
2022-10-17T10:06:41.808Z,20.90
2022-10-17T10:10:04.544Z,20.90
2022-10-17T10:13:26.424Z,20.80
2022-10-17T10:16:50.450Z,20.90
2022-10-17T10:20:25.054Z,20.80
2022-10-17T10:24:03.104Z,20.90
2022-10-17T10:27:28.862Z,20.90
2022-10-17T10:30:51.197Z,20.90
2022-10-17T10:34:17.385Z,20.90
2022-10-17T10:37:39.722Z,21.00
2022-10-17T10:41:05.290Z,21.10
2022-10-17T10:44:28.941Z,21.10
2022-10-17T10:47:51.718Z,21.20
2022-10-17T10:51:16.522Z,21.10
2022-10-17T10:54:40.322Z,21.10
2022-10-17T10:58:05.947Z,21.20
2022-10-17T11:01:31.411Z,21.30
2022-10-17T11:04:55.909Z,21.40
2022-10-17T11:08:22.608Z,21.40
2022-10-17T11:11:46.886Z,21.50
2022-10-17T11:15:14.304Z,21.60
2022-10-17T11:18:40.036Z,21.70
2022-10-17T11:22:05.104Z,21.60
2022-10-17T11:25:33.698Z,21.70
2022-10-17T11:28:56.288Z,21.70
2022-10-17T11:32:19.720Z,21.80
2022-10-17T11:35:43.102Z,22.00
2022-10-17T11:39:06.669Z,22.20
2022-10-17T11:42:33.120Z,22.20
2022-10-17T11:45:56.400Z,22.30
2022-10-17T11:49:21.054Z,22.40
2022-10-17T11:52:55.965Z,22.50
2022-10-17T11:56:21.122Z,22.60
2022-10-17T11:59:54.437Z,22.80
2022-10-17T12:03:21.228Z,22.90
2022-10-17T12:06:47.902Z,23.00
2022-10-17T12:10:18.106Z,23.10
2022-10-17T12:13:49.739Z,23.20
2022-10-17T12:17:28.362Z,23.20
2022-10-17T12:20:55.450Z,23.20
2022-10-17T12:24:24.762Z,23.30
2022-10-17T12:27:47.508Z,23.30
2022-10-17T12:31:09.792Z,23.30
2022-10-17T12:34:32.734Z,23.40
2022-10-17T12:38:01.071Z,23.50
2022-10-17T12:41:52.251Z,23.50
2022-10-17T12:45:32.385Z,23.50
2022-10-17T12:49:11.654Z,23.50
2022-10-17T12:56:21.311Z,23.50
2022-10-17T12:59:43.744Z,23.50
2022-10-17T13:03:09.775Z,23.50
2022-10-17T13:06:32.348Z,23.60
2022-10-17T13:09:54.094Z,23.60
2022-10-17T13:13:18.713Z,23.60
2022-10-17T13:16:41.166Z,23.60
2022-10-17T13:20:03.165Z,23.60
2022-10-17T13:23:25.463Z,23.60
2022-10-17T13:26:47.020Z,23.50
2022-10-17T13:30:26.698Z,23.50
2022-10-17T13:33:55.289Z,23.50
2022-10-17T13:37:16.890Z,23.50
2022-10-17T13:40:49.135Z,23.50
2022-10-17T13:44:13.531Z,23.60
2022-10-17T13:47:37.539Z,23.60
2022-10-17T13:51:02.806Z,23.50
2022-10-17T13:54:31.978Z,23.50
2022-10-17T13:57:53.522Z,23.50
2022-10-17T14:01:15.466Z,23.40
2022-10-17T14:05:04.022Z,23.40
2022-10-17T14:08:23.307Z,23.40
2022-10-17T14:11:56.328Z,23.40
2022-10-17T14:15:18.465Z,23.30
2022-10-17T14:18:40.071Z,23.30
2022-10-17T14:22:16.356Z,23.20
2022-10-17T14:25:39.048Z,23.10
2022-10-17T14:29:05.111Z,23.10
2022-10-17T14:32:27.271Z,23.10
2022-10-17T14:35:49.643Z,23.10
2022-10-17T14:39:18.807Z,23.00
2022-10-17T14:42:40.407Z,22.90
2022-10-17T14:46:02.542Z,22.90
2022-10-17T14:49:27.198Z,22.80
2022-10-17T14:52:58.926Z,22.80
2022-10-17T14:56:25.459Z,22.80
2022-10-17T14:59:55.626Z,22.80
2022-10-17T15:03:17.493Z,22.70
2022-10-17T15:06:39.066Z,22.70
2022-10-17T15:10:00.613Z,22.60
2022-10-17T15:13:28.291Z,22.50
2022-10-17T15:16:50.535Z,22.40
2022-10-17T15:20:13.415Z,22.40
2022-10-17T15:23:34.949Z,22.40
2022-10-17T15:26:56.584Z,22.30
2022-10-17T15:30:21.818Z,22.20
2022-10-17T15:33:43.952Z,22.20
2022-10-17T15:37:06.117Z,22.10
2022-10-17T15:40:28.607Z,22.00
2022-10-17T15:43:50.142Z,21.90
2022-10-17T15:47:18.645Z,21.80
2022-10-17T15:50:40.201Z,21.70
2022-10-17T15:54:01.898Z,21.50
2022-10-17T15:57:25.176Z,21.40
2022-10-17T16:00:47.423Z,21.20
2022-10-17T16:04:11.480Z,21.10
2022-10-17T16:07:33.166Z,20.90
2022-10-17T16:10:55.336Z,20.80
2022-10-17T16:14:16.884Z,20.70
2022-10-17T16:17:38.463Z,20.40
2022-10-17T16:21:01.409Z,20.20
2022-10-17T16:24:22.991Z,19.90
2022-10-17T16:27:44.929Z,19.60
2022-10-17T16:31:14.023Z,19.40
2022-10-17T16:34:35.646Z,19.20
2022-10-17T16:37:58.571Z,19.10
2022-10-17T16:41:21.715Z,19.00
2022-10-17T16:44:43.361Z,18.80
2022-10-17T16:48:06.907Z,18.60
2022-10-17T16:51:28.451Z,18.30
2022-10-17T16:54:51.331Z,18.10
2022-10-17T16:58:12.923Z,17.90
2022-10-17T17:01:34.458Z,17.80
2022-10-17T17:04:55.992Z,17.70
2022-10-17T17:08:17.583Z,17.50
2022-10-17T17:11:40.570Z,17.40
2022-10-17T17:15:02.132Z,17.50
2022-10-17T17:18:25.967Z,17.50
2022-10-17T17:21:47.892Z,17.50
2022-10-17T17:25:09.456Z,17.40
2022-10-17T17:28:32.873Z,17.30
2022-10-17T17:31:54.445Z,17.20
2022-10-17T17:35:16.138Z,17.10
2022-10-17T17:38:39.803Z,17.00
2022-10-17T17:42:01.412Z,16.90
2022-10-17T17:45:24.363Z,16.80
2022-10-17T17:48:46.597Z,16.80
2022-10-17T17:52:08.153Z,16.60
2022-10-17T17:55:29.976Z,16.50
2022-10-17T17:58:53.818Z,16.40
2022-10-17T18:02:16.805Z,16.40
2022-10-17T18:05:40.488Z,16.40
2022-10-17T18:09:02.443Z,16.30
2022-10-17T18:12:26.059Z,16.20
2022-10-17T18:15:47.963Z,16.10
2022-10-17T18:19:12.194Z,16.10
2022-10-17T18:22:34.057Z,16.10
2022-10-17T18:25:55.908Z,16.10
2022-10-17T18:29:17.879Z,16.10
2022-10-17T18:32:39.472Z,16.00
2022-10-17T18:36:07.171Z,16.00
2022-10-17T18:39:30.097Z,15.90
2022-10-17T18:42:51.634Z,15.90
2022-10-17T18:46:16.660Z,15.80
2022-10-17T18:49:38.657Z,15.80
2022-10-17T18:53:01.629Z,15.70
2022-10-17T18:56:23.382Z,15.70
2022-10-17T18:59:45.009Z,15.70
2022-10-17T19:03:06.567Z,15.60
2022-10-17T19:06:28.913Z,15.60
2022-10-17T19:09:51.813Z,15.50
2022-10-17T19:13:15.913Z,15.40
2022-10-17T19:16:41.138Z,15.40
2022-10-17T19:20:02.842Z,15.30
2022-10-17T19:23:24.429Z,15.30
2022-10-17T19:26:47.964Z,15.30
2022-10-17T19:30:09.916Z,15.20
2022-10-17T19:33:31.999Z,15.20
2022-10-17T19:36:53.760Z,15.20
2022-10-17T19:40:15.315Z,15.10
2022-10-17T19:43:38.918Z,15.10
2022-10-17T19:47:00.734Z,15.10
2022-10-17T19:50:22.405Z,15.10
2022-10-17T19:53:44.548Z,15.20
2022-10-17T19:57:09.588Z,15.20
2022-10-17T20:00:33.477Z,15.20
2022-10-17T20:03:55.539Z,15.20
2022-10-17T20:07:17.397Z,15.20
2022-10-17T20:10:39.131Z,15.10
2022-10-17T20:14:00.756Z,15.10
2022-10-17T20:17:23.733Z,15.10
2022-10-17T20:20:45.321Z,15.00
2022-10-17T20:24:08.546Z,14.90
2022-10-17T20:27:30.149Z,14.90
2022-10-17T20:30:52.468Z,14.80
2022-10-17T20:34:17.423Z,14.80
2022-10-17T20:37:42.393Z,14.60
2022-10-17T20:41:05.542Z,14.60
2022-10-17T20:44:27.065Z,14.70
2022-10-17T20:47:52.465Z,14.70
2022-10-17T20:51:15.624Z,14.70
2022-10-17T20:54:37.155Z,14.60
2022-10-17T20:57:58.717Z,14.50
2022-10-17T21:01:20.555Z,14.40
2022-10-17T21:04:46.804Z,14.30
2022-10-17T21:08:09.993Z,14.20
2022-10-17T21:11:32.004Z,14.10
2022-10-17T21:14:53.556Z,14.10
2022-10-17T21:18:15.090Z,14.10
2022-10-17T21:21:37.633Z,14.00
2022-10-17T21:25:00.524Z,14.00
2022-10-17T21:28:22.114Z,13.90
2022-10-17T21:31:44.208Z,13.90
2022-10-17T21:35:07.411Z,13.90
2022-10-17T21:38:28.967Z,13.90
2022-10-17T21:41:52.154Z,13.80
2022-10-17T21:45:15.581Z,13.80
2022-10-17T21:48:42.030Z,13.70
2022-10-17T21:52:03.676Z,13.70
2022-10-17T21:55:25.304Z,13.60
2022-10-17T21:58:48.759Z,13.60
2022-10-17T22:02:10.294Z,13.60
2022-10-17T22:05:31.848Z,13.50
2022-10-17T22:08:53.667Z,13.40
2022-10-17T22:12:15.212Z,13.40
2022-10-17T22:15:38.127Z,13.40
2022-10-17T22:19:03.305Z,13.30
2022-10-17T22:22:27.647Z,13.30
2022-10-17T22:25:52.864Z,13.20
2022-10-17T22:29:14.415Z,13.20
2022-10-17T22:32:37.336Z,13.20
2022-10-17T22:35:59.085Z,13.10
2022-10-17T22:39:20.661Z,13.10
2022-10-17T22:42:42.212Z,13.00
2022-10-17T22:46:05.120Z,13.00
2022-10-17T22:49:28.020Z,13.00
2022-10-17T22:52:49.782Z,13.00
2022-10-17T22:56:12.201Z,13.00
2022-10-17T22:59:33.751Z,13.00
2022-10-17T23:02:55.567Z,13.10
2022-10-17T23:06:18.719Z,13.10
2022-10-17T23:09:40.280Z,13.10
2022-10-17T23:13:01.868Z,13.00
2022-10-17T23:16:23.422Z,13.00
2022-10-17T23:19:44.973Z,12.90
2022-10-17T23:23:07.883Z,12.90
2022-10-17T23:26:29.435Z,12.90
2022-10-17T23:29:51.145Z,12.90
2022-10-17T23:33:13.455Z,12.90
2022-10-17T23:36:35.013Z,13.00
2022-10-17T23:39:57.913Z,13.10
2022-10-17T23:43:19.461Z,13.20
2022-10-17T23:46:41.006Z,13.30
2022-10-17T23:50:02.595Z,13.30
2022-10-17T23:53:24.235Z,13.30
2022-10-17T23:56:47.127Z,13.20
